ROAH

Naha Airport

Naha, Japan
TAF ROAH 182306Z 1900/2006 15010KT 9999 FEW035 SCT045 BECMG 2003/2006 35020KT TEMPO 2003/2006 4000 SHRA
Issued Valid From Valid To
Jan-18 @ 23:06 UTC
(3 hours ago)
Jan-19 @ 00:00 UTC
(2 hours ago)
Jan-20 @ 06:00 UTC
(-1 days ago)
Jan-19 @ 00:00 to Jan-20 @ 03:00
TAF ROAH 182306Z 1900/2006 15010KT 9999 FEW035 SCT045
Wind Visibility Clouds
150° at 10 knots 10,000+ meters
  • Few at 3,500' AGL
  • Scattered at 4,500' AGL
Temporary Jan-20 @ 03:00 to Jan-20 @ 06:00
TEMPO 2003/2006 4000 SHRA
Visibility Conditions
4,007 meters
  • Rain
Becoming Jan-20 @ 03:00 to Jan-20 @ 06:00
BECMG 2003/2006 35020KT
Wind Visibility Clouds
350° at 20 knots 10,000+ meters
  • Few at 3,500' AGL
  • Scattered at 4,500' AGL
TAF ROAH 182306Z 1900/2006 15010KT 9999 FEW035 SCT045 BECMG 2003/2006 35020KT TEMPO 2003/2006 4000 SHRA
Issued Jan-18 @ 23:06 UTC
(3 hours ago)
Valid From Jan-19 @ 00:00 UTC
(2 hours ago)
Valid To Jan-20 @ 06:00 UTC
(-1 days ago)
Jan-19 @ 00:00 - Jan-20 @ 03:00
Wind Visibility
150° at 10 knots 10,000+ meters
Clouds
  • Few at 3,500' AGL
  • Scattered at 4,500' AGL
Temporary Jan-20 @ 03:00 - Jan-20 @ 06:00
Conditions
  • Rain
Becoming Jan-20 @ 03:00 - Jan-20 @ 06:00
Wind Visibility
350° at 20 knots 10,000+ meters
Clouds
  • Few at 3,500' AGL
  • Scattered at 4,500' AGL